Airfield :
LOGIN :

Register | Disclaimer

   EN    FR    IT 

 










Legend :    VFR   Marginal VFR   IFR   Intensive IFR   Very Intensive IFR
Visi :
Ceiling :
>= 8 km
>= 3000ft
5 to 8 km
1000 to 3000 ft
1500m to 5 km
500 to 1000 ft
800 to 1500m
200 to 500 ft
< 800m
< 200 ft
Symbols :   Thunderstorms  Fog  Heavy snow  Heavy precipitations  Wind > 20 kt
SIGMETs :     Misc.  Thunderstorms  Icing  Turbulence  Mountain Waves  Volcanic Ashes






- Airport Elevation : 86 ft


LERT - Rota Navy

CURRENT METAR :
  • 220448Z 20003KT 2000 +RA SCT012 BKN020 BKN035 16/16 Q1005 NOSIG

EXPIRED METARs :
  • 220440Z 20004KT 5000 RA FEW010 BKN020 BKN035 16/16 Q1006 NOSIG
  • 220400Z 22007KT 7000 FEW008 SCT020 BKN025 16/16 Q1006 NOSIG
  • 220317Z 21005KT 7000 FEW005 SCT014 BKN025 16/16 Q1007 NOSIG
  • 220300Z VRB02KT 6000 BKN005 BKN014 BKN050 16/16 Q1007 NOSIG
  • 220200Z 22005KT 190V250 4000 RA FEW002 BKN010 BKN018 16/16 Q1007 NOSIG

TAF TAF LERT
Valid from the 22 at 03:00 until the 22 at 12:00 UTC


220200Z 2203/2212 20006KT 9999 SCT015 BKN030
PROB40
TEMPO 2203/2209 3000 RA BR BKN008
TEMPO 2209/2212 25018G32KT 3000 SHRA BKN010 SCT025TCU



MET'MAP, your aeronautical weather chart ! - Copyright ORBIFLY December 2007 - Disclaimer

ORBIFLY MET'MAP TEAM :

Programming & Development : Alexandra Zaïnal
Concept & Development : Baudouin d'Aumeries
Co-Development & Prog : Marc-Olivier Méhu
Technical & hardware support : Manuel Goepfert

Contact : metmap@orbifly.com




SOURCES & CREDITS :

   NOAA